PNPAS weather

Campo di Volo Pasiano
Pasiano (PN), Friuli-Venezia Giulia, Italy

Public forecast

Using degrees Celsius for public forecast. Weather courtesy of forecast.io.

METAR (pilot weather report)

Closest report is Aviano Air Base, 12.0 nm (22.2 km) N. Retrieved 2019/07/16 06:55 UTC (46 minutes ago):

LIPA 160655Z 22003KT 9999 FEW050 22/16 Q1013 RMK FEW VIS MIN 9999 WIND THR05 /////KT WIND THR23 /////KT A2994 BLU

TAF (pilot weather forecast)

Forecast is more than 12 hours old.

Closest forecast is Aviano Air Base, 12.0 nm (22.2 km) N. Retrieved 2015/11/03 12:24 UTC (4 years ago):

TAF TAF LIPA 031100Z 0312/0324 VRB03KT CAVOK